Sao Gabriel da Cachoeira, Brazil
Current Conditions -  °F | °C
As of 7:00 PM on Friday 28 Nov 2014 (Local Time) from SBUA Reporting Station
Few Clouds Few Clouds  
Wind Chill: 82°   Ceiling: Unl
Heat Index: 92°   Visibility: 6mi
Dew Point: 79°   Wind: 2mph
Humidity: 89%   Direction: 100°E
Pressure: 29.74"   Gusts: NA
Location:  0.13°S, 67.09°W
Report Text: SBUA 282300Z 10002KT 9999 FEW020 FEW025TCU 28/26 Q1007
Loading
Personal Weather Stations






























Interactive Weather Map New forecast layout! Learn more

10-Day Weather Forecast

Advertisements
Track Severe Weather on mobile